createdAt,value
2018-06-09T00:02:00.168Z,17.40
2018-06-09T00:04:30.175Z,17.40
2018-06-09T00:07:00.197Z,17.40
2018-06-09T00:09:30.217Z,17.40
2018-06-09T00:12:00.234Z,17.40
2018-06-09T00:14:30.220Z,17.40
2018-06-09T00:17:00.235Z,17.40
2018-06-09T00:19:30.218Z,17.40
2018-06-09T00:22:00.259Z,17.40
2018-06-09T00:24:30.240Z,17.40
2018-06-09T00:27:00.248Z,17.40
2018-06-09T00:29:30.246Z,17.40
2018-06-09T00:32:00.249Z,17.40
2018-06-09T00:34:30.232Z,17.30
2018-06-09T00:37:00.255Z,17.40
2018-06-09T00:39:30.253Z,17.30
2018-06-09T00:42:00.302Z,17.30
2018-06-09T00:44:30.284Z,17.30
2018-06-09T00:47:00.321Z,17.20
2018-06-09T00:49:30.346Z,17.20
2018-06-09T00:52:00.375Z,17.20
2018-06-09T00:54:30.397Z,17.20
2018-06-09T00:57:00.394Z,17.10
2018-06-09T00:59:30.343Z,17.20
2018-06-09T01:02:00.334Z,17.20
2018-06-09T01:04:30.311Z,17.30
2018-06-09T01:07:00.312Z,17.20
2018-06-09T01:09:30.273Z,17.20
2018-06-09T01:12:00.325Z,17.20
2018-06-09T01:14:30.243Z,17.30
2018-06-09T01:17:00.267Z,17.30
2018-06-09T01:19:30.353Z,17.30
2018-06-09T01:22:00.345Z,17.30
2018-06-09T01:24:30.332Z,17.30
2018-06-09T01:27:00.319Z,17.30
2018-06-09T01:29:30.441Z,17.30
2018-06-09T01:32:00.423Z,17.30
2018-06-09T01:34:30.415Z,17.40
2018-06-09T01:37:00.414Z,17.40
2018-06-09T01:39:30.359Z,17.30
2018-06-09T01:42:00.369Z,17.30
2018-06-09T01:44:30.330Z,17.30
2018-06-09T01:47:00.314Z,17.40
2018-06-09T01:49:30.365Z,17.40
2018-06-09T01:52:00.351Z,17.40
2018-06-09T01:54:30.305Z,17.50
2018-06-09T01:57:00.372Z,17.50
2018-06-09T01:59:30.339Z,17.50
2018-06-09T02:02:00.287Z,17.50
2018-06-09T02:06:59.842Z,17.50
2018-06-09T02:09:29.811Z,17.50
2018-06-09T02:11:59.820Z,17.50
2018-06-09T02:14:29.800Z,17.40
2018-06-09T02:16:59.767Z,17.50
2018-06-09T02:19:29.713Z,17.40
2018-06-09T02:24:29.243Z,17.30
2018-06-09T02:26:59.210Z,17.30
2018-06-09T02:29:29.184Z,17.30
2018-06-09T02:34:28.754Z,17.30
2018-06-09T02:36:58.799Z,17.20
2018-06-09T02:39:28.871Z,17.30
2018-06-09T02:41:59.311Z,17.20
2018-06-09T02:44:29.294Z,17.20
2018-06-09T02:46:59.295Z,17.20
2018-06-09T02:49:29.267Z,17.20
2018-06-09T02:51:59.360Z,17.20
2018-06-09T02:54:29.339Z,17.20
2018-06-09T02:56:59.360Z,17.10
2018-06-09T02:59:29.409Z,17.10
2018-06-09T03:01:59.439Z,17.10
2018-06-09T03:04:29.666Z,17.10
2018-06-09T03:06:59.917Z,17.10
2018-06-09T03:09:30.068Z,17.00
2018-06-09T03:12:00.130Z,17.00
2018-06-09T03:14:30.127Z,17.00
2018-06-09T03:17:00.117Z,17.00
2018-06-09T03:19:30.154Z,17.00
2018-06-09T03:22:00.144Z,17.00
2018-06-09T03:24:30.208Z,16.90
2018-06-09T03:27:00.799Z,16.90
2018-06-09T03:29:30.868Z,16.90
2018-06-09T03:32:00.869Z,16.80
2018-06-09T03:34:30.967Z,16.70
2018-06-09T03:37:00.958Z,16.70
2018-06-09T03:39:30.977Z,16.70
2018-06-09T03:42:00.979Z,16.60
2018-06-09T03:44:30.995Z,16.60
2018-06-09T03:47:00.977Z,16.60
2018-06-09T03:49:31.019Z,16.60
2018-06-09T03:52:01.024Z,16.60
2018-06-09T03:54:31.052Z,16.60
2018-06-09T03:57:01.051Z,16.60
2018-06-09T03:59:31.059Z,16.60
2018-06-09T04:02:01.071Z,16.60
2018-06-09T04:04:31.082Z,16.60
2018-06-09T04:07:01.064Z,16.60
2018-06-09T04:09:31.082Z,16.60
2018-06-09T04:12:01.111Z,16.60
2018-06-09T04:14:31.143Z,16.60
2018-06-09T04:17:01.151Z,16.60
2018-06-09T04:19:31.190Z,16.70
2018-06-09T04:22:01.155Z,16.70
2018-06-09T04:24:31.198Z,16.70
2018-06-09T04:27:01.211Z,16.80
2018-06-09T04:29:31.275Z,16.80
2018-06-09T04:32:01.272Z,16.80
2018-06-09T04:34:31.387Z,16.80
2018-06-09T04:37:01.360Z,16.90
2018-06-09T04:39:31.383Z,16.90
2018-06-09T04:42:01.375Z,16.90
2018-06-09T04:44:31.390Z,17.00
2018-06-09T04:47:01.334Z,17.20
2018-06-09T04:49:31.375Z,17.20
2018-06-09T04:52:01.330Z,17.30
2018-06-09T04:54:31.309Z,17.40
2018-06-09T04:57:01.296Z,17.40
2018-06-09T04:59:31.347Z,17.50
2018-06-09T05:02:01.372Z,17.60
2018-06-09T05:04:31.395Z,17.60
2018-06-09T05:07:01.385Z,17.70
2018-06-09T05:09:31.419Z,17.80
2018-06-09T05:12:01.426Z,17.90
2018-06-09T05:14:31.481Z,17.90
2018-06-09T05:17:01.443Z,18.00
2018-06-09T05:19:31.477Z,18.10
2018-06-09T05:22:01.484Z,18.30
2018-06-09T05:24:31.757Z,18.40
2018-06-09T05:27:01.782Z,18.60
2018-06-09T05:29:31.784Z,18.60
2018-06-09T05:32:01.821Z,18.60
2018-06-09T05:34:31.795Z,18.50
2018-06-09T05:37:01.809Z,18.40
2018-06-09T05:39:31.869Z,18.60
2018-06-09T05:42:01.931Z,18.50
2018-06-09T05:44:31.925Z,18.40
2018-06-09T05:47:01.945Z,18.40
2018-06-09T05:49:32.030Z,18.40
2018-06-09T05:52:02.057Z,18.60
2018-06-09T05:54:32.166Z,18.70
2018-06-09T05:57:03.729Z,18.70
2018-06-09T05:59:33.818Z,18.80
2018-06-09T06:02:04.269Z,18.90
2018-06-09T06:04:34.368Z,19.10
2018-06-09T06:07:04.542Z,19.20
2018-06-09T06:09:34.939Z,19.40
2018-06-09T06:12:05.046Z,19.60
2018-06-09T06:14:35.104Z,19.70
2018-06-09T06:17:05.174Z,19.80
2018-06-09T06:19:35.148Z,19.80
2018-06-09T06:22:05.241Z,19.90
2018-06-09T06:24:35.218Z,20.00
2018-06-09T06:27:05.311Z,20.10
2018-06-09T06:29:35.350Z,20.10
2018-06-09T06:32:05.608Z,20.20
2018-06-09T06:34:35.690Z,20.30
2018-06-09T06:37:05.785Z,20.30
2018-06-09T06:39:35.918Z,20.40
2018-06-09T06:42:06.054Z,20.40
2018-06-09T06:44:36.060Z,20.40
2018-06-09T06:47:06.308Z,20.50
2018-06-09T06:49:36.366Z,20.50
2018-06-09T06:52:06.613Z,20.60
2018-06-09T06:54:36.672Z,20.70
2018-06-09T06:57:06.706Z,20.80
2018-06-09T06:59:36.669Z,20.80
2018-06-09T07:02:07.117Z,20.90
2018-06-09T07:04:37.097Z,20.90
2018-06-09T07:09:36.718Z,21.00
2018-06-09T07:14:36.362Z,21.00
2018-06-09T07:17:06.442Z,21.10
2018-06-09T07:19:36.511Z,21.20
2018-06-09T07:22:06.667Z,21.20
2018-06-09T07:24:36.643Z,21.40
2018-06-09T07:29:36.383Z,21.50
2018-06-09T07:37:05.784Z,21.60
2018-06-09T07:39:35.792Z,21.70
2018-06-09T07:42:05.848Z,21.80
2018-06-09T07:44:35.859Z,21.80
2018-06-09T07:47:05.937Z,22.00
2018-06-09T07:49:35.967Z,22.20
2018-06-09T07:52:06.026Z,22.30
2018-06-09T07:54:36.120Z,22.30
2018-06-09T07:57:06.210Z,22.30
2018-06-09T07:59:36.272Z,22.30
2018-06-09T08:02:06.347Z,22.30
2018-06-09T08:04:36.380Z,22.20
2018-06-09T08:07:06.431Z,22.40
2018-06-09T08:09:36.484Z,22.40
2018-06-09T08:12:06.655Z,22.50
2018-06-09T08:14:36.677Z,22.50
2018-06-09T08:17:06.694Z,22.60
2018-06-09T08:19:36.780Z,22.60
2018-06-09T08:22:06.814Z,22.70
2018-06-09T08:24:36.855Z,22.80
2018-06-09T08:27:06.928Z,22.90
2018-06-09T08:29:36.991Z,23.00
2018-06-09T08:32:07.146Z,23.10
2018-06-09T08:34:38.122Z,23.30
2018-06-09T08:37:08.132Z,23.30
2018-06-09T08:39:38.161Z,23.40
2018-06-09T08:42:08.231Z,23.40
2018-06-09T08:44:38.354Z,23.50
2018-06-09T08:47:08.451Z,23.40
2018-06-09T08:49:38.509Z,23.40
2018-06-09T08:52:08.624Z,23.30
2018-06-09T08:54:38.765Z,23.40
2018-06-09T08:57:08.747Z,23.60
2018-06-09T08:59:38.781Z,23.70
2018-06-09T09:02:08.827Z,23.70
2018-06-09T09:04:38.857Z,23.90
2018-06-09T09:07:08.847Z,23.90
2018-06-09T09:09:38.922Z,24.00
2018-06-09T09:12:08.953Z,24.00
2018-06-09T09:14:39.010Z,24.00
2018-06-09T09:17:09.041Z,24.10
2018-06-09T09:19:39.109Z,24.10
2018-06-09T09:22:09.095Z,24.10
2018-06-09T09:24:39.137Z,24.20
2018-06-09T09:27:09.435Z,24.20
2018-06-09T09:29:39.587Z,24.10
2018-06-09T09:32:09.607Z,24.30
2018-06-09T09:34:39.682Z,24.50
2018-06-09T09:37:09.736Z,24.40
2018-06-09T09:39:39.790Z,24.50
2018-06-09T09:44:39.546Z,24.60
2018-06-09T09:47:09.574Z,24.60
2018-06-09T09:49:40.152Z,24.60
2018-06-09T09:52:10.227Z,24.80
2018-06-09T09:54:41.621Z,24.80
2018-06-09T09:57:11.705Z,24.80
2018-06-09T09:59:41.766Z,24.80
2018-06-09T10:02:11.849Z,24.70
2018-06-09T10:04:42.423Z,24.70
2018-06-09T10:07:12.559Z,24.70
2018-06-09T10:09:42.659Z,24.80
2018-06-09T10:12:12.666Z,24.90
2018-06-09T10:14:42.722Z,24.80
2018-06-09T10:17:12.717Z,24.90
2018-06-09T10:19:42.932Z,24.90
2018-06-09T10:22:12.992Z,25.00
2018-06-09T10:24:43.695Z,25.00
2018-06-09T10:27:13.696Z,25.00
2018-06-09T10:29:43.687Z,25.00
2018-06-09T10:32:13.683Z,25.10
2018-06-09T10:34:43.833Z,25.10
2018-06-09T10:37:13.836Z,25.10
2018-06-09T10:39:43.845Z,25.20
2018-06-09T10:42:13.932Z,25.30
2018-06-09T10:44:44.229Z,25.30
2018-06-09T10:49:44.027Z,25.30
2018-06-09T10:52:14.094Z,25.50
2018-06-09T10:54:44.160Z,25.30
2018-06-09T10:57:14.220Z,25.50
2018-06-09T10:59:44.247Z,25.50
2018-06-09T11:02:14.260Z,25.60
2018-06-09T11:04:44.284Z,25.70
2018-06-09T11:07:14.370Z,25.80
2018-06-09T11:09:44.425Z,25.90
2018-06-09T11:12:14.467Z,25.90
2018-06-09T11:17:14.306Z,25.90
2018-06-09T11:19:44.392Z,25.90
2018-06-09T11:22:14.504Z,25.80
2018-06-09T11:24:44.562Z,26.00
2018-06-09T11:27:14.732Z,26.00
2018-06-09T11:29:44.806Z,25.80
2018-06-09T11:32:14.860Z,25.70
2018-06-09T11:34:44.902Z,25.60
2018-06-09T11:37:15.034Z,25.50
2018-06-09T11:39:45.078Z,25.40
2018-06-09T11:42:15.144Z,25.30
2018-06-09T11:44:47.706Z,25.30
2018-06-09T11:47:19.273Z,25.20
2018-06-09T11:49:49.587Z,25.30
2018-06-09T11:52:20.378Z,25.30
2018-06-09T11:54:50.405Z,25.20
2018-06-09T11:57:20.519Z,25.30
2018-06-09T11:59:50.522Z,25.00
2018-06-09T12:02:20.548Z,24.90
2018-06-09T12:04:50.527Z,24.80
2018-06-09T12:07:20.616Z,24.60
2018-06-09T12:09:50.625Z,24.40
2018-06-09T12:12:20.691Z,24.40
2018-06-09T12:14:50.774Z,24.30
2018-06-09T12:17:20.922Z,24.20
2018-06-09T12:19:50.867Z,24.10
2018-06-09T12:22:20.979Z,23.90
2018-06-09T12:24:51.024Z,23.80
2018-06-09T12:27:21.108Z,23.70
2018-06-09T12:29:52.534Z,23.70
2018-06-09T12:32:22.810Z,23.50
2018-06-09T12:34:52.888Z,23.40
2018-06-09T12:37:22.937Z,23.40
2018-06-09T12:39:52.951Z,23.30
2018-06-09T12:42:23.387Z,23.20
2018-06-09T12:44:53.602Z,23.10
2018-06-09T12:47:23.642Z,23.10
2018-06-09T12:52:23.302Z,22.90
2018-06-09T12:54:53.349Z,22.70
2018-06-09T12:57:24.127Z,22.60
2018-06-09T12:59:54.166Z,22.50
2018-06-09T13:02:24.281Z,22.40
2018-06-09T13:07:24.000Z,22.20
2018-06-09T13:12:23.691Z,22.00
2018-06-09T13:14:53.927Z,21.90
2018-06-09T13:17:24.203Z,21.90
2018-06-09T13:22:24.170Z,21.80
2018-06-09T13:24:54.365Z,21.80
2018-06-09T13:27:24.407Z,21.80
2018-06-09T13:29:55.008Z,21.80
2018-06-09T13:32:25.248Z,21.80
2018-06-09T13:34:55.639Z,21.90
2018-06-09T13:37:25.797Z,21.80
2018-06-09T13:39:55.863Z,21.80
2018-06-09T13:42:26.228Z,21.80
2018-06-09T13:44:56.387Z,21.80
2018-06-09T13:47:26.503Z,21.70
2018-06-09T13:49:56.533Z,21.70
2018-06-09T13:52:26.736Z,21.70
2018-06-09T13:54:57.030Z,21.60
2018-06-09T13:57:27.531Z,21.60
2018-06-09T13:59:57.595Z,21.70
2018-06-09T14:02:27.898Z,21.60
2018-06-09T14:04:58.488Z,21.70
2018-06-09T14:07:28.590Z,21.80
2018-06-09T14:09:58.720Z,21.90
2018-06-09T14:12:29.079Z,21.90
2018-06-09T14:14:59.270Z,22.00
2018-06-09T14:19:59.213Z,22.20
2018-06-09T14:22:29.666Z,22.30
2018-06-09T14:24:59.905Z,22.50
2018-06-09T14:27:30.188Z,22.60
2018-06-09T14:30:00.285Z,22.80
2018-06-09T14:32:30.430Z,23.10
2018-06-09T14:35:00.591Z,23.10
2018-06-09T14:37:30.769Z,23.00
2018-06-09T14:40:00.846Z,22.80
2018-06-09T14:42:31.054Z,22.90
2018-06-09T14:45:02.121Z,23.00
2018-06-09T14:47:32.393Z,23.10
2018-06-09T14:50:02.448Z,23.20
2018-06-09T14:52:32.754Z,23.30
2018-06-09T14:57:32.841Z,23.40
2018-06-09T15:00:02.875Z,23.40
2018-06-09T15:02:33.213Z,23.50
2018-06-09T15:05:03.526Z,23.50
2018-06-09T15:07:33.767Z,23.60
2018-06-09T15:10:04.142Z,23.70
2018-06-09T15:15:04.219Z,23.90
2018-06-09T15:17:34.342Z,23.90
2018-06-09T15:20:04.525Z,23.90
2018-06-09T15:25:05.521Z,23.50
2018-06-09T15:27:35.988Z,23.60
2018-06-09T15:30:06.103Z,23.50
2018-06-09T15:32:37.652Z,23.40
2018-06-09T15:35:08.041Z,23.30
2018-06-09T15:37:38.284Z,23.30
2018-06-09T15:40:08.481Z,23.10
2018-06-09T15:42:38.927Z,23.00
2018-06-09T15:45:09.191Z,23.00
2018-06-09T15:47:39.442Z,23.10
2018-06-09T15:50:09.892Z,23.10
2018-06-09T16:07:49.601Z,23.00
2018-06-09T16:10:19.740Z,22.60
2018-06-09T16:12:49.865Z,22.40
2018-06-09T16:15:19.976Z,22.20
2018-06-09T16:17:50.088Z,22.00
2018-06-09T16:20:20.154Z,21.90
2018-06-09T16:22:50.554Z,21.70
2018-06-09T16:25:20.738Z,21.60
2018-06-09T16:27:50.810Z,21.40
2018-06-09T16:30:20.935Z,21.10
2018-06-09T16:32:50.988Z,20.80
2018-06-09T16:35:21.174Z,20.70
2018-06-09T16:37:51.369Z,20.50
2018-06-09T16:40:21.421Z,20.20
2018-06-09T16:42:51.449Z,20.00
2018-06-09T16:45:21.529Z,19.90
2018-06-09T16:47:51.535Z,19.80
2018-06-09T16:50:21.758Z,19.70
2018-06-09T16:52:51.729Z,19.60
2018-06-09T16:55:22.125Z,19.60
2018-06-09T16:57:52.381Z,19.60
2018-06-09T17:00:22.506Z,19.60
2018-06-09T17:02:52.548Z,19.60
2018-06-09T17:05:23.205Z,19.50
2018-06-09T17:07:53.279Z,19.50
2018-06-09T17:10:23.414Z,19.40
2018-06-09T17:12:53.633Z,19.30
2018-06-09T17:15:23.874Z,19.30
2018-06-09T17:17:53.999Z,19.20
2018-06-09T17:20:24.093Z,19.20
2018-06-09T17:22:54.348Z,19.20
2018-06-09T17:25:24.728Z,19.20
2018-06-09T17:27:55.066Z,19.10
2018-06-09T17:30:25.172Z,19.10
2018-06-09T17:32:55.254Z,19.00
2018-06-09T17:35:25.509Z,19.00
2018-06-09T17:37:55.724Z,18.80
2018-06-09T17:40:26.260Z,18.90
2018-06-09T17:42:56.369Z,18.90
2018-06-09T17:45:26.531Z,18.90
2018-06-09T17:47:56.846Z,18.80
2018-06-09T17:50:26.922Z,18.80
2018-06-09T17:52:56.939Z,18.80
2018-06-09T17:55:27.685Z,18.80
2018-06-09T17:57:57.868Z,18.80
2018-06-09T18:00:27.900Z,18.80
2018-06-09T18:02:57.963Z,18.90
2018-06-09T18:05:28.162Z,18.90
2018-06-09T18:07:58.231Z,18.90
2018-06-09T18:10:28.920Z,18.90
2018-06-09T18:12:59.258Z,18.90
2018-06-09T18:15:29.355Z,18.80
2018-06-09T18:17:59.405Z,18.80
2018-06-09T18:20:30.088Z,18.70
2018-06-09T18:23:00.301Z,18.60
2018-06-09T18:25:31.026Z,18.50
2018-06-09T18:28:01.073Z,18.50
2018-06-09T18:30:31.171Z,18.50
2018-06-09T18:33:01.907Z,18.40
2018-06-09T18:35:31.998Z,18.40
2018-06-09T18:38:02.050Z,18.30
2018-06-09T18:40:32.144Z,18.30
2018-06-09T18:43:02.175Z,18.20
2018-06-09T18:45:32.241Z,18.20
2018-06-09T18:48:02.286Z,18.20
2018-06-09T18:50:32.339Z,18.10
2018-06-09T18:53:02.381Z,18.10
2018-06-09T18:55:32.442Z,18.10
2018-06-09T18:58:02.543Z,18.10
2018-06-09T19:00:32.666Z,18.10
2018-06-09T19:03:02.672Z,18.20
2018-06-09T19:05:32.814Z,18.20
2018-06-09T19:08:03.033Z,18.20
2018-06-09T19:10:33.117Z,18.20
2018-06-09T19:13:03.391Z,18.20
2018-06-09T19:15:33.524Z,18.30
2018-06-09T19:18:03.614Z,18.30
2018-06-09T19:20:33.700Z,18.30
2018-06-09T19:23:03.744Z,18.30
2018-06-09T19:25:33.937Z,18.30
2018-06-09T19:28:04.031Z,18.30
2018-06-09T19:30:34.109Z,18.20
2018-06-09T19:33:04.277Z,18.20
2018-06-09T19:35:34.301Z,18.30
2018-06-09T19:38:04.705Z,18.30
2018-06-09T19:40:34.897Z,18.30
2018-06-09T19:43:04.976Z,18.30
2018-06-09T19:45:35.069Z,18.30
2018-06-09T19:48:05.268Z,18.30
2018-06-09T19:50:35.381Z,18.30
2018-06-09T19:53:05.591Z,18.20
2018-06-09T19:55:35.646Z,18.20
2018-06-09T19:58:06.167Z,18.20
2018-06-09T20:00:36.286Z,18.20
2018-06-09T20:03:06.652Z,18.10
2018-06-09T20:05:36.694Z,18.10
2018-06-09T20:08:06.865Z,18.10
2018-06-09T20:10:36.915Z,18.00
2018-06-09T20:13:07.194Z,18.00
2018-06-09T20:15:37.304Z,18.00
2018-06-09T20:18:07.545Z,18.00
2018-06-09T20:20:37.743Z,17.90
2018-06-09T20:23:08.299Z,17.90
2018-06-09T20:25:38.427Z,17.90
2018-06-09T20:28:09.061Z,17.90
2018-06-09T20:30:39.199Z,17.90
2018-06-09T20:33:09.345Z,18.00
2018-06-09T20:35:39.454Z,18.00
2018-06-09T20:38:09.624Z,18.00
2018-06-09T20:40:39.846Z,18.00
2018-06-09T20:43:10.793Z,18.00
2018-06-09T20:45:40.900Z,18.00
2018-06-09T20:48:11.024Z,18.00
2018-06-09T20:50:41.168Z,18.00
2018-06-09T20:53:11.345Z,18.10
2018-06-09T20:55:43.667Z,18.00
2018-06-09T21:00:43.946Z,18.00
2018-06-09T21:03:14.089Z,18.00
2018-06-09T21:05:44.461Z,18.00
2018-06-09T21:08:14.668Z,18.00
2018-06-09T21:10:44.807Z,18.00
2018-06-09T21:13:14.948Z,17.90
2018-06-09T21:15:44.959Z,17.90
2018-06-09T21:18:15.353Z,17.90
2018-06-09T21:20:45.535Z,17.90
2018-06-09T21:23:16.422Z,17.90
2018-06-09T21:25:46.486Z,17.80
2018-06-09T21:28:21.704Z,17.80
2018-06-09T21:30:57.403Z,17.80
2018-06-09T21:33:49.267Z,17.80
2018-06-09T21:36:24.468Z,17.80
2018-06-09T21:39:00.811Z,17.80
2018-06-09T21:41:36.171Z,17.80
2018-06-09T21:44:11.507Z,17.80
2018-06-09T21:46:47.472Z,17.80
2018-06-09T21:49:18.697Z,17.80
2018-06-09T21:51:48.715Z,17.80
2018-06-09T21:54:18.823Z,17.70
2018-06-09T21:56:48.872Z,17.70
2018-06-09T21:59:18.955Z,17.70
2018-06-09T22:01:49.071Z,17.70
2018-06-09T22:04:19.136Z,17.70
2018-06-09T22:06:49.183Z,17.70
2018-06-09T22:09:19.804Z,17.70
2018-06-09T22:11:49.829Z,17.60
2018-06-09T22:14:20.088Z,17.60
2018-06-09T22:16:50.283Z,17.60
2018-06-09T22:19:20.349Z,17.60
2018-06-09T22:21:50.391Z,17.60
2018-06-09T22:24:21.067Z,17.60
2018-06-09T22:26:51.145Z,17.60
2018-06-09T22:29:21.280Z,17.60
2018-06-09T22:31:51.323Z,17.60
2018-06-09T22:34:21.505Z,17.60
2018-06-09T22:36:51.559Z,17.70
2018-06-09T22:39:21.649Z,17.70
2018-06-09T22:41:51.774Z,17.70
2018-06-09T22:44:21.936Z,17.70
2018-06-09T22:46:52.435Z,17.70
2018-06-09T22:49:22.479Z,17.60
2018-06-09T22:51:52.554Z,17.50
2018-06-09T22:56:52.269Z,17.60
2018-06-09T22:59:22.357Z,17.60
2018-06-09T23:01:52.414Z,17.60
2018-06-09T23:04:22.507Z,17.60
2018-06-09T23:06:52.581Z,17.60
2018-06-09T23:09:22.633Z,17.50
2018-06-09T23:11:52.664Z,17.50
2018-06-09T23:14:22.769Z,17.50
2018-06-09T23:16:52.840Z,17.40
2018-06-09T23:19:22.843Z,17.40
2018-06-09T23:21:52.940Z,17.40
2018-06-09T23:24:23.017Z,17.30
2018-06-09T23:26:53.139Z,17.30
2018-06-09T23:29:23.505Z,17.30
2018-06-09T23:31:53.568Z,17.30
2018-06-09T23:34:23.651Z,17.30
2018-06-09T23:36:53.751Z,17.20
2018-06-09T23:39:23.751Z,17.20
2018-06-09T23:41:53.809Z,17.30
2018-06-09T23:44:23.880Z,17.20
2018-06-09T23:46:53.964Z,17.30
2018-06-09T23:49:24.028Z,17.30
2018-06-09T23:51:54.150Z,17.40
2018-06-09T23:54:24.232Z,17.40
2018-06-09T23:56:54.337Z,17.30
2018-06-09T23:59:24.427Z,17.20
